Time;durP1;ratioP1;P1;durP2;ratioP2;P2;SDS_P1;SDS_P2;PMS_P1;PMS_P2;Temp;Humidity;BMP_temperature;BMP_pressure;BME280_temperature;BME280_humidity;BME280_pressure;Samples;Min_cycle;Max_cycle;Signal;HPM_P1;HPM_P2
2023/04/14 00:03:20;;;;;;;6.47;2.47;;;;;;;6.34;44.99;99783.13;20870684;28;20208;-79
2023/04/14 00:13:23;;;;;;;7.27;2.97;;;;;;;6.50;42.41;99792.72;20862096;28;20533;-79
2023/04/14 00:23:25;;;;;;;4.40;2.23;;;;;;;6.54;43.48;99815.31;20885028;28;20289;-80
2023/04/14 00:33:27;;;;;;;4.73;2.07;;;;;;;6.18;45.24;99807.19;20884788;28;20204;-78
2023/04/14 00:43:29;;;;;;;3.75;1.95;;;;;;;5.89;45.87;99822.56;20846210;28;20200;-79
2023/04/14 00:53:32;;;;;;;5.13;1.77;;;;;;;5.65;46.66;99828.56;20883164;28;20668;-80
2023/04/14 01:03:35;;;;;;;4.97;2.10;;;;;;;5.35;47.77;99850.91;20903635;28;20214;-81
2023/04/14 01:13:45;;;;;;;4.30;1.70;;;;;;;5.04;47.30;99840.47;20864820;28;20684;-83
2023/04/14 01:24:23;;;;;;;9.27;2.10;;;;;;;4.66;48.64;99861.50;20886130;28;20367;-81
2023/04/14 01:34:38;;;;;;;6.97;1.87;;;;;;;4.51;49.26;99852.31;20867376;28;20295;-82
2023/04/14 01:44:41;;;;;;;5.30;1.60;;;;;;;4.48;48.84;99850.19;20891576;28;20180;-83
2023/04/14 01:54:46;;;;;;;4.97;1.37;;;;;;;5.24;46.98;99859.56;20873882;28;20869;-82
2023/04/14 02:04:49;;;;;;;3.37;1.17;;;;;;;5.73;45.22;99852.16;20878140;28;20535;-83
2023/04/14 02:14:53;;;;;;;3.63;1.00;;;;;;;5.64;45.46;99859.69;20874124;28;20219;-81
2023/04/14 02:24:55;;;;;;;2.90;0.80;;;;;;;5.94;45.03;99844.00;20884844;28;20226;-83
2023/04/14 02:35:05;;;;;;;1.37;0.80;;;;;;;5.75;45.97;99843.44;20888766;28;20507;-83
2023/04/14 02:45:13;;;;;;;3.87;1.37;;;;;;;6.15;44.82;99836.66;20905104;28;20192;-82
2023/04/14 02:55:17;;;;;;;4.57;1.13;;;;;;;6.23;45.41;99858.28;20911527;28;20277;-82
2023/04/14 03:05:22;;;;;;;6.53;1.23;;;;;;;5.70;45.21;99872.38;20906664;28;20193;-81
2023/04/14 03:15:36;;;;;;;6.40;1.40;;;;;;;5.43;45.42;99884.56;20914062;28;20219;-82
2023/04/14 03:25:39;;;;;;;4.07;0.87;;;;;;;5.55;45.02;99872.78;20936920;28;20296;-82
2023/04/14 03:35:46;;;;;;;5.80;1.40;;;;;;;5.39;45.03;99886.34;20921323;28;20269;-82
2023/04/14 03:45:50;;;;;;;4.93;1.13;;;;;;;5.32;45.39;99883.97;20923785;28;20245;-82
2023/04/14 03:55:55;;;;;;;4.73;1.53;;;;;;;5.19;45.81;99882.06;20916172;28;20277;-82
2023/04/14 04:05:57;;;;;;;4.63;1.30;;;;;;;3.45;51.29;99896.31;20910183;28;20195;-81
2023/04/14 04:16:00;;;;;;;3.83;1.87;;;;;;;3.46;52.37;99906.34;20921372;28;20227;-83
2023/04/14 04:26:03;;;;;;;4.00;1.57;;;;;;;4.20;50.90;99915.59;20949904;28;20284;-83
2023/04/14 04:36:11;;;;;;;2.07;1.20;;;;;;;4.83;49.62;99903.63;20921185;28;20491;-84
2023/04/14 04:46:42;;;;;;;3.87;1.27;;;;;;;4.64;49.99;99903.75;20947542;28;20596;-82
2023/04/14 04:56:45;;;;;;;4.63;1.63;;;;;;;4.74;50.34;99908.31;20953678;28;20230;-81
2023/04/14 05:06:47;;;;;;;3.37;1.50;;;;;;;5.09;49.56;99912.25;20938897;28;20192;-83
2023/04/14 05:16:49;;;;;;;5.00;1.73;;;;;;;4.87;50.63;99918.66;20935055;28;20224;-83
2023/04/14 05:26:52;;;;;;;6.53;1.80;;;;;;;4.94;49.90;99925.47;20910990;28;20227;-83
2023/04/14 05:37:15;;;;;;;3.70;1.57;;;;;;;4.76;49.96;99931.22;20927217;28;20219;-83
2023/04/14 05:47:18;;;;;;;7.23;1.60;;;;;;;5.11;49.27;99930.41;20937379;28;20488;-82
2023/04/14 05:57:20;;;;;;;6.00;2.33;;;;;;;5.16;49.02;99930.25;20918596;28;20285;-82
2023/04/14 06:07:23;;;;;;;6.07;2.80;;;;;;;5.59;48.73;99927.00;20926493;28;20245;-82
2023/04/14 06:17:25;;;;;;;4.37;2.30;;;;;;;5.74;48.58;99921.03;20918956;28;20280;-83
2023/04/14 06:27:27;;;;;;;5.43;1.90;;;;;;;6.30;46.63;99911.09;20966306;28;20227;-83
2023/04/14 06:37:30;;;;;;;5.13;1.53;;;;;;;6.69;45.47;99899.84;20935153;28;20273;-82
2023/04/14 06:47:32;;;;;;;7.43;1.60;;;;;;;6.41;45.90;99904.03;20914468;28;20196;-85
2023/04/14 06:57:34;;;;;;;3.57;1.80;;;;;;;6.66;45.88;99897.69;20904805;28;20246;-84
2023/04/14 07:07:38;;;;;;;4.40;1.33;;;;;;;6.83;45.75;99890.47;20972096;28;20212;-85
2023/04/14 07:17:41;;;;;;;6.13;1.90;;;;;;;6.75;44.41;99888.47;20933551;28;20558;-82
2023/04/14 07:27:43;;;;;;;4.80;1.60;;;;;;;6.81;45.07;99893.59;20948439;28;20227;-82
2023/04/14 07:38:03;;;;;;;10.23;2.27;;;;;;;7.60;42.31;99881.19;20956971;28;20215;-83
2023/04/14 07:48:05;;;;;;;5.83;1.83;;;;;;;7.63;42.11;99886.16;20974477;28;20625;-82
2023/04/14 07:58:08;;;;;;;6.00;1.90;;;;;;;8.13;41.70;99884.38;20943989;28;20219;-83
2023/04/14 08:08:12;;;;;;;5.50;1.77;;;;;;;8.87;40.77;99887.81;20939667;28;20199;-86
2023/04/14 08:18:14;;;;;;;5.63;1.40;;;;;;;8.32;40.16;99886.75;20958241;28;20227;-86
2023/04/14 08:28:17;;;;;;;5.43;1.40;;;;;;;8.79;40.05;99887.50;20888189;28;20227;-83
2023/04/14 08:38:19;;;;;;;5.10;1.90;;;;;;;8.87;37.63;99874.56;20842284;28;20619;-83
2023/04/14 08:48:23;;;;;;;3.83;1.30;;;;;;;8.59;37.46;99871.41;20869037;28;20615;-84
2023/04/14 08:58:29;;;;;;;5.80;1.93;;;;;;;9.92;36.30;99864.81;20868971;28;20296;-84
2023/04/14 09:08:35;;;;;;;6.97;1.40;;;;;;;9.85;35.26;99856.09;20856515;28;20219;-84
2023/04/14 09:18:38;;;;;;;6.90;1.38;;;;;;;9.72;35.65;99843.97;20869863;28;20251;-84
2023/04/14 09:28:41;;;;;;;3.47;1.17;;;;;;;9.53;35.95;99849.31;20868014;28;20297;-84
2023/04/14 09:38:45;;;;;;;5.18;1.20;;;;;;;9.85;35.74;99853.28;20825431;28;20306;-83
2023/04/14 09:48:55;;;;;;;4.43;1.33;;;;;;;10.48;33.80;99836.84;20821879;28;21012;-84
2023/04/14 09:58:58;;;;;;;3.17;0.73;;;;;;;10.80;32.58;99813.34;20833814;28;20247;-83
2023/04/14 10:09:02;;;;;;;3.50;1.27;;;;;;;11.28;30.97;99795.38;20826762;28;20274;-84
2023/04/14 10:19:05;;;;;;;4.50;1.15;;;;;;;11.93;31.09;99783.81;20861183;28;20255;-84
2023/04/14 10:29:08;;;;;;;3.67;0.80;;;;;;;11.72;30.87;99778.44;20897425;28;1120399;-84
2023/04/14 10:39:11;;;;;;;4.60;1.05;;;;;;;10.58;33.50;99786.44;20937355;28;20551;-82
2023/04/14 10:49:13;;;;;;;4.20;1.15;;;;;;;10.94;31.58;99779.88;20972630;28;20218;-84
2023/04/14 10:59:16;;;;;;;4.87;1.10;;;;;;;10.98;33.33;99766.69;20975196;28;20227;-85
2023/04/14 11:09:28;;;;;;;6.75;1.40;;;;;;;11.53;32.08;99744.41;20957421;28;20192;-83
2023/04/14 11:19:31;;;;;;;6.90;0.70;;;;;;;11.11;30.41;99752.50;20968407;28;20635;-84
2023/04/14 11:29:33;;;;;;;4.55;1.40;;;;;;;11.31;30.52;99740.16;20983569;28;20239;-84
2023/04/14 11:39:35;;;;;;;8.80;1.00;;;;;;;10.89;31.15;99734.94;20965218;28;20693;-82
2023/04/14 11:49:38;;;;;;;4.60;1.05;;;;;;;11.92;29.73;99720.78;20972808;28;20191;-83
2023/04/14 11:59:44;;;;;;;2.85;1.15;;;;;;;12.24;30.22;99721.59;20968639;28;20724;-83
2023/04/14 12:09:48;;;;;;;4.00;1.10;;;;;;;12.38;28.17;99713.44;20944074;28;20472;-84
2023/04/14 12:19:50;;;;;;;5.43;1.02;;;;;;;12.41;28.19;99708.22;20972953;28;20223;-84
2023/04/14 12:29:53;;;;;;;4.65;1.23;;;;;;;11.77;30.10;99703.84;20940213;28;20229;-84
2023/04/14 12:39:57;;;;;;;4.10;1.10;;;;;;;12.95;28.34;99688.31;20951165;28;20250;-83
2023/04/14 12:50:01;;;;;;;4.10;0.88;;;;;;;12.70;28.76;99676.47;20954754;28;20260;-83
2023/04/14 13:00:05;;;;;;;4.63;1.25;;;;;;;13.32;28.70;99651.81;20976797;28;20242;-84
2023/04/14 13:10:10;;;;;;;4.97;1.20;;;;;;;13.22;27.23;99643.91;20966151;28;20492;-84
2023/04/14 13:20:15;;;;;;;2.92;0.68;;;;;;;12.82;26.60;99650.81;20958101;28;20223;-86
2023/04/14 13:30:18;;;;;;;5.60;1.15;;;;;;;11.92;31.26;99635.91;20935964;28;20786;-85
2023/04/14 13:40:24;;;;;;;6.25;1.23;;;;;;;12.07;29.81;99636.25;20959289;28;20263;-83
2023/04/14 13:50:27;;;;;;;4.88;1.35;;;;;;;11.54;29.73;99630.97;20955370;28;20195;-84
2023/04/14 14:00:29;;;;;;;4.40;0.90;;;;;;;12.53;31.61;99625.97;20929671;28;20276;-84
2023/04/14 14:10:31;;;;;;;5.93;1.13;;;;;;;13.02;29.77;99615.66;20919508;28;20488;-82
2023/04/14 14:20:34;;;;;;;3.22;1.13;;;;;;;12.63;29.40;99616.88;20952753;28;20328;-84
2023/04/14 14:30:36;;;;;;;3.15;0.90;;;;;;;12.09;31.63;99617.72;20936252;28;20272;-85
2023/04/14 14:40:39;;;;;;;6.10;1.10;;;;;;;13.14;27.78;99599.66;20970903;28;20226;-87
2023/04/14 14:50:41;;;;;;;2.65;0.85;;;;;;;12.91;27.97;99603.28;20952755;28;20271;-87
2023/04/14 15:00:43;;;;;;;6.47;1.50;;;;;;;12.96;29.30;99597.28;20967880;28;20261;-84
2023/04/14 15:10:45;;;;;;;5.07;1.65;;;;;;;12.72;27.92;99595.63;20952864;28;20188;-86
2023/04/14 15:20:47;;;;;;;5.10;1.70;;;;;;;12.66;28.88;99584.97;20970723;28;20283;-87
2023/04/14 15:30:50;;;;;;;8.75;2.13;;;;;;;12.38;28.80;99591.72;20955221;28;20666;-84
2023/04/14 15:40:53;;;;;;;4.95;1.52;;;;;;;12.63;29.06;99589.38;20954016;28;20728;-84
2023/04/14 15:50:55;;;;;;;7.13;2.05;;;;;;;11.80;30.60;99581.47;20952154;28;20245;-82
2023/04/14 16:00:59;;;;;;;7.00;2.03;;;;;;;13.26;28.21;99569.09;20925562;28;20219;-83
2023/04/14 16:11:01;;;;;;;6.30;1.83;;;;;;;13.04;26.29;99564.28;20947459;28;20199;-84
2023/04/14 16:21:04;;;;;;;6.93;1.20;;;;;;;13.32;26.17;99561.13;20928568;28;20521;-82
2023/04/14 16:31:06;;;;;;;4.57;1.02;;;;;;;13.78;25.62;99574.00;20868444;28;20261;-84
2023/04/14 16:41:09;;;;;;;5.75;1.00;;;;;;;13.22;27.06;99576.72;20885499;28;20228;-90
2023/04/14 16:51:11;;;;;;;6.93;2.30;;;;;;;11.81;32.26;99598.09;20867430;28;20196;-79
2023/04/14 17:01:14;;;;;;;6.25;2.58;;;;;;;11.29;33.92;99602.06;20890974;28;20294;-84
2023/04/14 17:11:16;;;;;;;5.82;2.80;;;;;;;11.08;34.58;99609.16;20858833;28;20650;-83
2023/04/14 17:21:19;;;;;;;4.50;1.52;;;;;;;9.98;35.14;99615.25;20863414;28;20218;-82
2023/04/14 17:31:21;;;;;;;4.38;2.58;;;;;;;10.44;34.71;99608.19;20952346;28;20187;-84
2023/04/14 17:41:25;;;;;;;3.55;1.27;;;;;;;10.33;34.31;99620.34;20952545;28;20311;-82
2023/04/14 17:51:29;;;;;;;2.90;1.40;;;;;;;10.17;35.12;99620.28;20940702;28;20481;-83
2023/04/14 18:01:31;;;;;;;3.08;1.40;;;;;;;10.18;34.86;99619.94;20929285;28;20211;-82
2023/04/14 18:11:35;;;;;;;4.35;1.30;;;;;;;10.66;33.01;99632.22;20952733;28;20245;-81
2023/04/14 18:21:37;;;;;;;4.10;1.23;;;;;;;10.96;33.32;99627.84;20918405;28;20564;-82
2023/04/14 18:31:41;;;;;;;3.95;1.58;;;;;;;10.97;33.98;99635.13;20894452;28;20273;-82
2023/04/14 18:41:45;;;;;;;3.45;1.65;;;;;;;10.21;34.16;99653.03;20909638;28;20505;-82
2023/04/14 18:51:47;;;;;;;5.50;1.85;;;;;;;10.35;35.23;99649.00;20921308;28;20241;-81
2023/04/14 19:01:49;;;;;;;5.88;1.85;;;;;;;9.94;37.05;99656.66;20898231;28;20290;-81
2023/04/14 19:11:52;;;;;;;3.50;1.58;;;;;;;9.82;37.10;99667.94;20874165;28;20631;-82
2023/04/14 19:21:54;;;;;;;5.13;2.42;;;;;;;9.35;36.50;99682.44;20909449;28;20239;-83
2023/04/14 19:31:56;;;;;;;4.95;2.83;;;;;;;9.54;37.16;99674.25;20871616;28;20232;-82
2023/04/14 19:41:59;;;;;;;4.82;3.08;;;;;;;9.02;39.03;99684.50;20881253;28;20493;-82
2023/04/14 19:52:01;;;;;;;4.20;2.90;;;;;;;9.21;39.16;99687.56;20889484;28;20218;-85
2023/04/14 20:02:04;;;;;;;9.40;4.03;;;;;;;8.87;39.87;99690.78;20919459;28;20629;-88
2023/04/14 20:12:08;;;;;;;5.37;2.93;;;;;;;8.84;40.24;99698.75;20867717;28;20203;-88
2023/04/14 20:22:12;;;;;;;8.17;3.83;;;;;;;8.60;41.70;99695.78;20908226;28;20235;-86
2023/04/14 20:32:15;;;;;;;7.53;3.40;;;;;;;8.69;40.16;99698.56;20964918;28;20200;-85
2023/04/14 20:42:19;;;;;;;6.97;3.72;;;;;;;8.46;41.45;99695.25;20979632;28;20581;-85
2023/04/14 20:52:21;;;;;;;6.30;3.50;;;;;;;7.65;42.97;99701.25;20974069;28;20202;-85
2023/04/14 21:02:24;;;;;;;5.93;3.53;;;;;;;7.94;41.82;99700.44;20956495;28;20223;-85
2023/04/14 21:12:26;;;;;;;8.63;3.80;;;;;;;7.79;41.62;99701.84;20990296;28;20253;-85
2023/04/14 21:22:37;;;;;;;6.43;4.00;;;;;;;7.64;41.23;99702.41;20942646;28;20229;-84
2023/04/14 21:32:39;;;;;;;7.67;4.07;;;;;;;8.02;40.29;99703.19;20965901;28;20191;-86
2023/04/14 21:42:42;;;;;;;6.30;4.13;;;;;;;8.20;39.94;99698.28;20948589;28;20207;-86
2023/04/14 21:52:44;;;;;;;6.78;4.22;;;;;;;8.01;41.11;99704.34;20956502;28;20591;-86
2023/04/14 22:02:48;;;;;;;7.35;4.20;;;;;;;7.59;42.42;99699.78;20947437;28;20214;-87
2023/04/14 22:12:52;;;;;;;4.37;3.97;;;;;;;8.01;42.48;99709.97;20963115;28;20195;-85
2023/04/14 22:22:54;;;;;;;4.40;4.00;;;;;;;7.51;42.60;99715.50;20976787;28;20854;-82
2023/04/14 22:32:56;;;;;;;8.20;4.27;;;;;;;7.63;42.28;99707.19;21001271;28;20199;-82
2023/04/14 22:42:59;;;;;;;7.68;4.72;;;;;;;7.64;42.10;99724.88;20989267;28;20264;-84
2023/04/14 22:53:02;;;;;;;6.80;4.60;;;;;;;7.36;44.15;99730.91;20966556;28;20541;-84
2023/04/14 23:03:04;;;;;;;11.52;5.80;;;;;;;7.34;43.89;99732.41;20979995;28;20218;-83
2023/04/14 23:13:07;;;;;;;9.13;5.57;;;;;;;7.12;44.22;99736.25;20958116;28;20518;-83
2023/04/14 23:23:11;;;;;;;6.63;4.70;;;;;;;7.10;44.84;99740.59;20969436;28;20281;-82
2023/04/14 23:33:13;;;;;;;6.63;5.53;;;;;;;6.86;45.58;99753.13;20982319;28;20217;-81
2023/04/14 23:43:15;;;;;;;6.33;5.13;;;;;;;6.50;46.92;99738.59;20939657;28;20277;-82
2023/04/14 23:53:18;;;;;;;6.33;5.30;;;;;;;6.71;46.49;99737.63;20958499;28;20221;-83
